Weather at Hazen Heliport [CLOSED]

Public forecast

Using degrees Fahrenheit for public forecast. Weather courtesy of forecast.io.

Closest aviation weather report (METAR) to Hazen Heliport

Closest report is Stuttgart Municipal Airport / Carl Humphrey Field, 10.9 nm (20.2 km) S. Retrieved 2020/10/01 02:56 UTC (44 minutes ago):

KSGT 010256Z AUTO 22007KT 10SM CLR 17/14 A3000 RMK AO2 SLP159 T01670144 51013

Closest aviation forecast (TAF) to Hazen Heliport

Closest forecast is Little Rock Air Force Base, 29.2 nm (54.0 km) WNW. Retrieved 2020-10-01 23:54 UTC (0 seconds ago):

TAF TAF KLRF 302300Z 3023/0205 20006KT 9999 SKC QNH2993INS BECMG 0105/0106 31006KT 9999 SKC QNH3003INS BECMG 0117/0118 33010G15KT 9999 SKC QNH3015INS BECMG 0123/0124 35006KT 9999 SKC QNH3014INS TX30/0121Z TN13/0112Z